This is the latest recevied weather packets stored in our database for station/object SV9TNF-57. If no packets are shown the sender has not sent any weather packets the latest 10 day(s).
| Time | Temp. | Humidity | Pressure | Rain* | Wind** | Luminosity | Snow |
|---|---|---|---|---|---|---|---|
| 1788021115 | 25° C | 58% | 995.5 hPa | 0 mm | 3.58 m/s, 37° | - | - |
| 1788020815 | 25° C | 60% | 995.9 hPa | 0 mm | 5.81 m/s, 289° | - | - |
| 1788020515 | 25.56° C | 59% | 995.7 hPa | 0 mm | 2.68 m/s, 309° | - | - |
| 1788020215 | 25.56° C | 58% | 995.7 hPa | 0 mm | 1.79 m/s, 317° | - | - |
| 1788019915 | 25.56° C | 58% | 995.7 hPa | 0 mm | 5.36 m/s, 359° | - | - |
| 1788019615 | 25.56° C | 59% | 995.6 hPa | 0 mm | 6.71 m/s, 54° | - | - |
| 1788019315 | 25.56° C | 58% | 995.8 hPa | 0 mm | 3.58 m/s, 330° | - | - |
| 1788019014 | 25.56° C | 57% | 995.8 hPa | 0 mm | 12.07 m/s, 301° | - | - |
| 1788018714 | 25.56° C | 57% | 995.8 hPa | 0 mm | 7.15 m/s, 281° | - | - |
| 1788018414 | 25.56° C | 57% | 995.8 hPa | 0 mm | 10.28 m/s, 327° | - | - |
| 1788018114 | 25.56° C | 57% | 995.8 hPa | 0 mm | 4.92 m/s, 325° | - | - |
| 1788017814 | 26.11° C | 57% | 995.7 hPa | 0 mm | 4.02 m/s, 289° | - | - |
| 1788017514 | 26.11° C | 57% | 995.7 hPa | 0 mm | 4.92 m/s, 271° | - | - |
| 1788017214 | 26.11° C | 57% | 995.9 hPa | 0 mm | 6.71 m/s, 311° | - | - |
| 1788016914 | 26.11° C | 56% | 995.8 hPa | 0 mm | 8.94 m/s, 292° | - | - |
| 1788016614 | 26.11° C | 54% | 995.8 hPa | 0 mm | 6.26 m/s, 343° | - | - |
| 1788016313 | 26.11° C | 52% | 995.9 hPa | 0 mm | 2.68 m/s, 257° | - | - |
| 1788016013 | 26.67° C | 54% | 996 hPa | 0 mm | 8.49 m/s, 328° | - | - |
| 1788015713 | 26.67° C | 54% | 996 hPa | 0 mm | 6.71 m/s, 345° | - | - |
| 1788015413 | 26.67° C | 54% | 995.9 hPa | 0 mm | 2.68 m/s, 253° | - | - |
| 1788015114 | 26.67° C | 55% | 995.8 hPa | 0 mm | 12.07 m/s, 229° | - | - |
| 1788014813 | 26.67° C | 54% | 995.9 hPa | 0 mm | 4.92 m/s, 352° | - | - |
| 1788014513 | 26.67° C | 55% | 995.8 hPa | 0 mm | 2.24 m/s, 185° | - | - |
| 1788014213 | 26.67° C | 55% | 995.9 hPa | 0 mm | 4.92 m/s, 225° | - | - |
| 1788013913 | 26.67° C | 56% | 995.9 hPa | 0 mm | 8.94 m/s, 309° | - | - |
* Rain latest hour (hover to see other rain measurements)
** Current wind speed in m/s (hover to see current wind gust speed)